Pagrindinis puslapis
METAR-TAF:

METAR-TAF

Oro uostai :

Stavropolis, Rusija

platuma: 45-20N, ilguma: 042-00E, Aukštis: 453 m

Dabartinis oras

Ataskaita buvo paskelbta 42 minutes, ne 04:30 UTC
Vėjas 4 kt iš Šiaurės Vakarų
Temperatūra 5°C
Drėgmė 26%
Slėgis 1030 hPa
Matomumas 10 km arba daugiau
nėra debesų žemiau 1500 m ir nėra kamuolinių lietaus debesų

METAR: URMT 070430Z 32002MPS CAVOK 05/M13 Q1030 R25/010070 NOSIG RMK QFE734

Laikas: 09:12 (05:12 UTC)

Prognozė

Ataskaita buvo paskelbta 3 valandos ir 12 minutes, ne 02:00 UTC
Prognozė galioja nuo 07 metu 03 UTC su 07 metu 12 UTC
Vėjas 6 kt iš Šiaurės/Šiaurės Vakarų su gūsio iki 16 kt
Matomumas 10 km arba daugiau
Išsisklaidę debesys ne aukštis 2000 ft
Laikinai
nuo 07 metu 06 UTC su 07 metu 12 UTC
Vėjas 12 kt iš Šiaurės/Šiaurės Rytų su gūsio iki 23 kt

TAF: URMT 070200Z 0703/0712 34003G08MPS 9999 SCT020 TEMPO 0706/0712 02006G12MPS

Orai ataskaitas ir orų prognozės (METAR, TAF).

turimą stotys yra geltonos ir raudonos taškus žemėlapyje.

Perkelti pele per norėdami pamatyti stoties vardą.

Tada spustelėkite, norėdami matyti oro stebėjimo ir prognozės.

Norėdami pakeisti žemėlapį: spustelėkite ant žalios mygtukų su juodo kryžiaus žemyn,; žalią mygtuką su brūkšneliu, jei norite nutolinti; arba žalių rodyklių gretimoms žemėlapius.


METAR-TAF: